Time;durP1;ratioP1;P1;durP2;ratioP2;P2;SDS_P1;SDS_P2;PMS_P1;PMS_P2;Temp;Humidity;BMP_temperature;BMP_pressure;BME280_temperature;BME280_humidity;BME280_pressure;Samples;Min_cycle;Max_cycle;Signal;HPM_P1;HPM_P2
2022/10/31 00:00:58;;;;;;;27.73;12.20;;;;;;;10.90;74.08;100765.00;124507;1098;104296;-72
2022/10/31 00:03:41;;;;;;;27.60;12.43;;;;;;;10.88;73.88;100756.18;124545;1099;104331;-72
2022/10/31 00:06:12;;;;;;;22.90;11.97;;;;;;;10.87;73.72;100755.27;124554;1098;104241;-72
2022/10/31 00:08:43;;;;;;;23.90;12.17;;;;;;;10.85;73.78;100766.56;124531;1099;102998;-72
2022/10/31 00:11:14;;;;;;;26.13;11.77;;;;;;;10.83;73.70;100765.58;124503;1098;104191;-72
2022/10/31 00:13:46;;;;;;;29.03;12.30;;;;;;;10.79;73.87;100759.33;124545;1099;102886;-72
2022/10/31 00:16:21;;;;;;;24.17;11.73;;;;;;;10.74;73.74;100751.27;124525;1098;104307;-72
2022/10/31 00:18:53;;;;;;;25.63;12.17;;;;;;;10.71;74.29;100748.53;124542;1098;104173;-73
2022/10/31 00:21:24;;;;;;;24.77;11.07;;;;;;;10.70;74.20;100753.72;124545;1099;103738;-72
2022/10/31 00:23:55;;;;;;;28.43;11.37;;;;;;;10.67;74.53;100750.97;124516;1099;104166;-72
2022/10/31 00:26:27;;;;;;;27.23;12.23;;;;;;;10.64;74.47;100745.61;124503;1099;102796;-72
2022/10/31 00:28:59;;;;;;;26.00;11.90;;;;;;;10.63;74.42;100756.92;124195;1098;104331;-72
2022/10/31 00:31:32;;;;;;;24.63;11.18;;;;;;;10.59;74.31;100755.92;124502;1099;102216;-72
2022/10/31 00:34:04;;;;;;;29.23;12.33;;;;;;;10.57;74.78;100754.97;124182;1099;104258;-72
2022/10/31 00:36:35;;;;;;;25.33;12.13;;;;;;;10.54;74.63;100750.48;124530;1099;104239;-72
2022/10/31 00:39:06;;;;;;;26.87;11.90;;;;;;;10.52;75.12;100748.66;124143;1099;104734;-72
2022/10/31 00:41:38;;;;;;;26.30;11.17;;;;;;;10.51;74.73;100757.35;124541;1099;104271;-72
2022/10/31 00:44:14;;;;;;;27.37;11.87;;;;;;;10.51;75.04;100749.48;124576;1099;104163;-72
2022/10/31 00:46:45;;;;;;;26.37;11.47;;;;;;;10.49;75.42;100749.42;124529;1099;103164;-72
2022/10/31 00:49:16;;;;;;;25.87;11.70;;;;;;;10.47;74.88;100743.23;124560;1099;104405;-72
2022/10/31 00:51:47;;;;;;;24.27;11.53;;;;;;;10.46;75.92;100743.16;124553;1099;102857;-72
2022/10/31 00:54:19;;;;;;;24.77;11.00;;;;;;;10.44;75.16;100748.35;124465;1099;104254;-72
2022/10/31 00:56:50;;;;;;;27.80;11.50;;;;;;;10.41;75.39;100738.62;124505;1099;102870;-72
2022/10/31 00:59:21;;;;;;;24.97;11.20;;;;;;;10.40;75.85;100742.06;124555;1099;103039;-72
2022/10/31 01:01:52;;;;;;;24.20;11.50;;;;;;;10.37;75.75;100739.31;125115;1099;104162;-72
2022/10/31 01:04:23;;;;;;;24.77;10.70;;;;;;;10.38;76.19;100745.48;124532;1099;102898;-72
2022/10/31 01:06:54;;;;;;;23.63;11.30;;;;;;;10.36;75.99;100739.25;124589;1099;102873;-72
2022/10/31 01:09:28;;;;;;;26.97;11.93;;;;;;;10.33;75.85;100742.67;124487;1098;104322;-72
2022/10/31 01:11:59;;;;;;;23.43;11.17;;;;;;;10.32;76.11;100742.58;124542;1099;102842;-72
2022/10/31 01:14:30;;;;;;;24.10;11.40;;;;;;;10.31;76.05;100735.53;124520;1099;104293;-72
2022/10/31 01:17:02;;;;;;;24.83;11.33;;;;;;;10.30;76.18;100738.97;124521;1099;104673;-72
2022/10/31 01:19:33;;;;;;;24.50;10.93;;;;;;;10.29;76.03;100731.95;124533;1099;104204;-72
2022/10/31 01:22:04;;;;;;;22.97;10.77;;;;;;;10.26;75.96;100732.72;124536;1099;104261;-72
2022/10/31 01:24:35;;;;;;;27.53;12.30;;;;;;;10.24;76.14;100732.66;124559;1099;104252;-72
2022/10/31 01:27:06;;;;;;;26.67;12.40;;;;;;;10.24;76.07;100719.54;124499;1099;102841;-73
2022/10/31 01:29:38;;;;;;;25.43;12.13;;;;;;;10.23;76.09;100716.86;124514;1099;104173;-72
2022/10/31 01:32:10;;;;;;;26.47;11.90;;;;;;;10.21;76.54;100718.53;124181;1099;104261;-71
2022/10/31 01:34:41;;;;;;;23.33;11.60;;;;;;;10.18;76.90;100721.91;124594;1099;102970;-72
2022/10/31 01:37:12;;;;;;;23.67;11.70;;;;;;;10.16;76.62;100706.94;124111;1099;104227;-71
2022/10/31 01:39:43;;;;;;;28.23;14.40;;;;;;;10.15;76.09;100716.55;124514;1099;102496;-72
2022/10/31 01:42:19;;;;;;;41.00;23.93;;;;;;;10.13;76.53;100707.73;124586;1099;104316;-72
2022/10/31 01:44:59;;;;;;;44.57;29.30;;;;;;;10.11;76.57;100705.87;124116;1099;102930;-72
2022/10/31 01:47:42;;;;;;;43.07;27.47;;;;;;;10.11;76.46;100717.23;124540;1099;103641;-72
2022/10/31 01:50:27;;;;;;;47.60;31.43;;;;;;;10.08;76.95;100710.16;124556;1099;102777;-72
2022/10/31 01:52:59;;;;;;;46.17;31.33;;;;;;;10.07;76.78;100717.97;124509;1099;104217;-71
2022/10/31 01:55:34;;;;;;;40.27;24.93;;;;;;;10.07;76.88;100720.59;124132;1099;104290;-72
2022/10/31 01:58:06;;;;;;;;;;;;;;;10.03;77.09;100714.30;124169;1098;104166;-72
2022/10/31 02:00:37;;;;;;;29.10;13.27;;;;;;;10.00;77.01;100722.07;124566;1099;104192;-72
2022/10/31 02:03:08;;;;;;;28.87;14.43;;;;;;;9.98;77.29;100725.45;124521;1099;102358;-72
2022/10/31 02:05:40;;;;;;;28.57;12.97;;;;;;;9.97;76.77;100726.27;124485;1099;104354;-72
2022/10/31 02:08:16;;;;;;;23.87;12.13;;;;;;;9.95;77.70;100722.70;124541;1098;104162;-72
2022/10/31 02:10:48;;;;;;;26.07;11.80;;;;;;;9.92;77.66;100726.08;124531;1099;104357;-72
2022/10/31 02:13:20;;;;;;;23.67;11.30;;;;;;;9.89;78.17;100732.10;124160;1098;103613;-72
2022/10/31 02:15:55;;;;;;;22.87;11.30;;;;;;;9.88;77.64;100726.80;124561;1099;104175;-72
2022/10/31 02:18:28;;;;;;;24.80;11.60;;;;;;;9.86;77.57;100736.30;124056;1099;104279;-72
2022/10/31 02:21:12;;;;;;;23.53;11.73;;;;;;;9.83;77.61;100731.84;124133;1099;102325;-72
2022/10/31 02:24:01;;;;;;;23.10;11.65;;;;;;;9.81;78.12;100743.97;124103;1099;104224;-71
2022/10/31 02:27:12;;;;;;;23.93;10.90;;;;;;;9.79;78.08;100748.26;124137;1099;104162;-72
2022/10/31 02:30:08;;;;;;;26.30;12.00;;;;;;;9.78;77.89;100742.95;124531;1099;119601;-72
2022/10/31 02:32:51;;;;;;;26.20;11.27;;;;;;;9.73;78.70;100744.48;124517;1099;104220;-72
2022/10/31 02:35:35;;;;;;;25.70;11.47;;;;;;;9.68;77.97;100739.05;124135;1099;104188;-72
2022/10/31 02:38:15;;;;;;;25.80;11.90;;;;;;;9.66;78.53;100738.06;124550;1098;104238;-72
2022/10/31 02:40:54;;;;;;;25.83;12.13;;;;;;;9.64;78.40;100739.73;124557;1099;104278;-72
2022/10/31 02:43:42;;;;;;;25.63;12.30;;;;;;;9.60;79.88;100738.72;124488;1099;104223;-72
2022/10/31 02:46:20;;;;;;;25.73;11.87;;;;;;;9.58;79.71;100750.83;124505;1099;103670;-72
2022/10/31 02:48:56;;;;;;;27.47;12.20;;;;;;;9.53;79.65;100749.75;124553;1099;104117;-72
2022/10/31 02:51:27;;;;;;;26.30;12.27;;;;;;;9.52;79.47;100753.18;124498;1099;103809;-72
2022/10/31 02:53:59;;;;;;;22.40;12.43;;;;;;;9.55;78.90;100755.94;124556;1099;104223;-72
2022/10/31 02:56:30;;;;;;;23.03;10.70;;;;;;;9.61;79.29;100755.32;124538;1099;104239;-72
2022/10/31 02:59:05;;;;;;;26.30;12.50;;;;;;;9.63;79.19;100749.33;124516;1099;104262;-72
2022/10/31 03:02:07;;;;;;;23.23;11.70;;;;;;;9.69;78.84;100757.45;124629;1098;102277;-72
2022/10/31 03:05:10;;;;;;;23.43;11.33;;;;;;;9.76;78.94;100750.75;124463;1099;104274;-72
2022/10/31 03:07:53;;;;;;;24.50;11.03;;;;;;;9.80;78.97;100749.14;124547;1099;104265;-72
2022/10/31 03:10:32;;;;;;;26.43;12.30;;;;;;;9.82;78.94;100740.52;124554;1099;104191;-72
2022/10/31 03:13:08;;;;;;;26.10;11.63;;;;;;;9.86;79.25;100745.08;124493;1099;104245;-72
2022/10/31 03:15:43;;;;;;;22.97;11.93;;;;;;;9.91;79.09;100747.90;124487;1099;102838;-72
2022/10/31 03:18:22;;;;;;;26.20;12.10;;;;;;;9.95;79.65;100747.17;124501;1099;104213;-72
2022/10/31 03:21:00;;;;;;;26.13;12.13;;;;;;;9.97;79.49;100750.78;124442;1099;104217;-72
2022/10/31 03:23:35;;;;;;;24.83;12.37;;;;;;;9.98;79.12;100749.04;124582;1099;103636;-72
2022/10/31 03:26:09;;;;;;;26.83;13.10;;;;;;;9.96;79.42;100748.09;124530;1099;104274;-72
2022/10/31 03:28:50;;;;;;;26.20;13.87;;;;;;;9.95;79.37;100757.66;124477;1099;104220;-72
2022/10/31 03:31:24;;;;;;;29.07;14.63;;;;;;;9.93;79.55;100761.07;124533;1099;110869;-72
2022/10/31 03:33:59;;;;;;;26.13;13.10;;;;;;;9.90;79.60;100762.70;124586;1099;104189;-72
2022/10/31 03:36:36;;;;;;;26.07;13.63;;;;;;;9.86;80.12;100744.16;124541;1099;104235;-72
2022/10/31 03:39:10;;;;;;;29.80;14.67;;;;;;;9.85;80.28;100745.02;124440;1099;104169;-73
2022/10/31 03:41:46;;;;;;;27.47;13.80;;;;;;;9.83;80.26;100747.57;124536;1099;103821;-72
2022/10/31 03:44:22;;;;;;;31.73;15.53;;;;;;;9.82;80.17;100744.88;124548;1099;104287;-72
2022/10/31 03:47:01;;;;;;;30.97;14.37;;;;;;;9.80;80.12;100731.72;124506;1099;104217;-72
2022/10/31 03:49:33;;;;;;;26.83;14.43;;;;;;;9.80;79.94;100730.80;124497;1098;104188;-72
2022/10/31 03:52:10;;;;;;;31.33;15.57;;;;;;;9.78;80.34;100745.57;124524;1099;104128;-72
2022/10/31 03:54:45;;;;;;;30.20;14.47;;;;;;;9.75;80.84;100740.20;124531;1099;102930;-72
2022/10/31 03:57:22;;;;;;;30.23;15.27;;;;;;;9.74;81.02;100741.94;124518;1099;104230;-72
2022/10/31 03:59:58;;;;;;;33.27;16.60;;;;;;;9.75;80.88;100748.06;124516;1099;104322;-72
2022/10/31 04:02:34;;;;;;;30.50;15.07;;;;;;;9.78;81.61;100742.95;124520;1099;102345;-72
2022/10/31 04:05:07;;;;;;;29.60;15.50;;;;;;;9.81;81.19;100758.81;124498;1099;104235;-72
2022/10/31 04:07:42;;;;;;;31.60;15.90;;;;;;;9.83;81.52;100754.52;124552;1099;104262;-72
2022/10/31 04:10:16;;;;;;;28.57;15.20;;;;;;;9.85;81.52;100755.50;124541;1099;104554;-72
2022/10/31 04:12:52;;;;;;;32.87;17.00;;;;;;;9.85;82.46;100760.73;124539;1099;104207;-71
2022/10/31 04:15:29;;;;;;;33.93;17.47;;;;;;;9.85;82.47;100766.87;124558;1099;104239;-72
2022/10/31 04:18:04;;;;;;;32.48;17.10;;;;;;;9.85;82.29;100764.25;124474;1099;104274;-72
2022/10/31 04:20:38;;;;;;;33.07;16.47;;;;;;;9.81;81.98;100762.31;124494;1099;102354;-72
2022/10/31 04:23:29;;;;;;;33.20;17.10;;;;;;;9.93;82.27;100769.81;124575;1099;103675;-72
2022/10/31 04:26:00;;;;;;;32.23;16.33;;;;;;;9.98;81.39;100772.64;124529;1099;102314;-72
2022/10/31 04:28:33;;;;;;;31.53;17.83;;;;;;;10.00;82.27;100771.88;124541;1099;104268;-72
2022/10/31 04:31:04;;;;;;;32.63;16.37;;;;;;;10.03;81.97;100771.98;124481;1099;104101;-72
2022/10/31 04:33:38;;;;;;;31.93;17.52;;;;;;;10.06;82.10;100777.34;124519;1099;104319;-72
2022/10/31 04:36:11;;;;;;;30.87;17.30;;;;;;;10.10;82.64;100787.97;124515;1099;104259;-72
2022/10/31 04:38:42;;;;;;;35.73;17.90;;;;;;;10.10;82.28;100790.59;124486;1099;104172;-72
2022/10/31 04:41:21;;;;;;;31.13;17.73;;;;;;;10.10;82.21;100793.21;124473;1099;104235;-72
2022/10/31 04:43:58;;;;;;;32.57;17.60;;;;;;;10.11;82.65;100792.39;124491;1099;104360;-72
2022/10/31 04:46:31;;;;;;;36.80;18.12;;;;;;;10.08;83.01;100796.69;124503;1099;104401;-72
2022/10/31 04:49:02;;;;;;;33.57;17.80;;;;;;;10.08;82.77;100798.39;124516;1099;104357;-72
2022/10/31 04:51:34;;;;;;;34.50;18.23;;;;;;;10.08;83.07;100796.69;124568;1099;104198;-72
2022/10/31 04:54:05;;;;;;;34.53;18.17;;;;;;;10.11;82.97;100793.28;124568;1099;104401;-72
2022/10/31 04:56:36;;;;;;;32.63;17.63;;;;;;;10.13;82.74;100790.72;124613;1099;104402;-72
2022/10/31 04:59:14;;;;;;;32.40;17.87;;;;;;;10.14;83.49;100797.77;124441;1099;105235;-72
2022/10/31 05:01:51;;;;;;;32.90;18.30;;;;;;;10.13;83.39;100794.27;124124;1099;104229;-72
2022/10/31 05:04:27;;;;;;;35.63;20.33;;;;;;;10.14;82.97;100796.03;124341;1099;104255;-72
2022/10/31 05:06:58;;;;;;;39.33;21.53;;;;;;;10.16;82.59;100794.39;124496;1099;104152;-73
2022/10/31 05:09:30;;;;;;;39.47;21.40;;;;;;;10.17;82.94;100796.16;124489;1099;104329;-72
2022/10/31 05:12:01;;;;;;;36.97;20.57;;;;;;;10.17;83.24;100803.14;124508;1099;103379;-72
2022/10/31 05:14:50;;;;;;;35.50;20.97;;;;;;;10.18;83.27;100799.70;124541;1099;104300;-72
2022/10/31 05:17:40;;;;;;;53.87;22.13;;;;;;;10.23;82.55;100813.89;124559;1099;104166;-72
2022/10/31 05:20:34;;;;;;;39.33;22.27;;;;;;;10.25;82.76;100814.84;124128;1099;104193;-72
2022/10/31 05:23:24;;;;;;;36.60;20.37;;;;;;;10.26;83.14;100822.77;124471;1099;104182;-72
2022/10/31 05:25:55;;;;;;;37.43;21.50;;;;;;;10.29;83.47;100821.13;124516;1099;104238;-72
2022/10/31 05:28:26;;;;;;;40.90;20.70;;;;;;;10.30;82.98;100818.58;124548;1099;102339;-72
2022/10/31 05:30:58;;;;;;;36.55;21.15;;;;;;;10.32;83.00;100824.77;124527;1099;104204;-72
2022/10/31 05:33:29;;;;;;;35.97;20.97;;;;;;;10.34;83.40;100814.38;124571;1099;104364;-72
2022/10/31 05:36:18;;;;;;;38.67;20.97;;;;;;;10.38;83.21;100809.32;124498;1099;104073;-72
2022/10/31 05:38:55;;;;;;;36.43;21.50;;;;;;;10.41;83.16;100814.69;124658;1099;104363;-72
2022/10/31 05:41:31;;;;;;;36.90;21.73;;;;;;;10.46;83.23;100816.63;124563;1099;103903;-72
2022/10/31 05:44:14;;;;;;;42.30;22.23;;;;;;;10.50;83.08;100827.31;124522;1099;104205;-72
2022/10/31 05:47:04;;;;;;;38.20;21.87;;;;;;;10.55;82.93;100819.59;124553;1099;104173;-72
2022/10/31 05:49:41;;;;;;;38.27;21.73;;;;;;;10.60;83.37;100828.58;124560;1099;104047;-73
2022/10/31 05:52:15;;;;;;;37.33;21.40;;;;;;;10.61;82.62;100831.26;124558;1099;104221;-72
2022/10/31 05:54:53;;;;;;;37.93;20.60;;;;;;;10.62;82.93;100837.39;124520;1099;104201;-73
2022/10/31 05:57:24;;;;;;;36.37;20.80;;;;;;;10.66;82.68;100834.07;124518;1099;102573;-72
2022/10/31 05:59:57;;;;;;;38.07;21.43;;;;;;;10.71;82.38;100843.02;124531;1099;104226;-73
2022/10/31 06:02:32;;;;;;;40.37;22.10;;;;;;;10.75;83.39;100842.32;124501;1099;104398;-72
2022/10/31 06:05:26;;;;;;;38.37;22.27;;;;;;;10.81;83.19;100843.39;124144;1099;104281;-72
2022/10/31 06:07:57;;;;;;;39.57;22.63;;;;;;;10.86;83.03;100831.33;124552;1098;104258;-72
2022/10/31 06:10:30;;;;;;;36.23;21.20;;;;;;;10.94;82.97;100835.18;124532;1099;102394;-72
2022/10/31 06:13:01;;;;;;;36.33;22.10;;;;;;;10.98;83.16;100842.33;124527;1099;102896;-72
2022/10/31 06:15:50;;;;;;;36.83;20.93;;;;;;;11.04;83.22;100846.94;124484;1099;104258;-72
2022/10/31 06:18:22;;;;;;;37.50;21.17;;;;;;;11.05;82.90;100839.12;124478;1099;104318;-72
2022/10/31 06:20:55;;;;;;;40.60;22.90;;;;;;;11.08;83.08;100843.57;124499;1099;104224;-73
2022/10/31 06:23:27;;;;;;;37.40;20.53;;;;;;;11.11;83.52;100855.11;124596;1099;104265;-72
2022/10/31 06:26:10;;;;;;;39.30;22.13;;;;;;;11.10;83.21;100848.06;124508;1099;102370;-72
2022/10/31 06:28:42;;;;;;;35.67;21.13;;;;;;;11.13;83.27;100848.18;124514;1099;104421;-72
2022/10/31 06:31:26;;;;;;;38.10;22.80;;;;;;;11.15;83.61;100859.63;124544;1099;102770;-72
2022/10/31 06:33:58;;;;;;;38.37;22.57;;;;;;;11.19;83.06;100852.78;124491;1099;104268;-72
2022/10/31 06:36:30;;;;;;;36.20;21.67;;;;;;;11.24;83.32;100856.48;124599;1099;104382;-72
2022/10/31 06:39:02;;;;;;;36.10;20.50;;;;;;;11.27;83.37;100851.34;124608;1098;104201;-72
2022/10/31 06:41:36;;;;;;;37.78;21.70;;;;;;;11.31;83.15;100854.97;124535;1099;104264;-72
2022/10/31 06:44:08;;;;;;;37.07;22.67;;;;;;;11.35;83.21;100856.89;124549;1099;102313;-72
2022/10/31 06:47:02;;;;;;;37.43;20.57;;;;;;;11.43;83.31;100863.33;124627;1099;104245;-73
2022/10/31 06:50:03;;;;;;;36.80;21.75;;;;;;;11.45;83.59;100869.55;124170;1099;104268;-72
2022/10/31 06:52:34;;;;;;;36.90;21.87;;;;;;;11.45;83.29;100866.93;124561;1099;104306;-72
2022/10/31 06:55:08;;;;;;;36.77;21.03;;;;;;;11.50;83.64;100874.98;124515;1099;104418;-72
2022/10/31 06:57:39;;;;;;;39.60;22.53;;;;;;;11.49;83.38;100868.81;124588;1099;102872;-72
2022/10/31 07:00:14;;;;;;;38.33;22.30;;;;;;;11.52;83.08;100873.30;124554;1098;104685;-73
2022/10/31 07:02:55;;;;;;;38.87;21.90;;;;;;;11.54;83.27;100868.98;124530;1098;104227;-72
2022/10/31 07:05:30;;;;;;;37.20;21.37;;;;;;;11.55;83.41;100868.16;124489;1099;102836;-73
2022/10/31 07:08:03;;;;;;;39.90;20.70;;;;;;;11.58;83.61;100867.39;124501;1099;104217;-71
2022/10/31 07:10:35;;;;;;;41.43;22.47;;;;;;;11.61;83.58;100864.84;124525;1099;103721;-72
2022/10/31 07:13:13;;;;;;;37.17;20.48;;;;;;;11.66;83.53;100863.30;124470;1099;104217;-72
2022/10/31 07:15:46;;;;;;;37.33;20.50;;;;;;;11.73;83.43;100853.91;124486;1099;104284;-72
2022/10/31 07:18:19;;;;;;;36.47;21.03;;;;;;;11.79;83.44;100854.13;124575;1099;104323;-71
2022/10/31 07:20:54;;;;;;;34.93;20.47;;;;;;;11.82;83.27;100851.61;124532;1099;104261;-72
2022/10/31 07:23:26;;;;;;;38.40;19.47;;;;;;;11.86;83.23;100848.27;124522;1099;104293;-72
2022/10/31 07:26:19;;;;;;;37.63;19.53;;;;;;;11.94;83.44;100849.45;124523;1099;113178;-72
2022/10/31 07:28:52;;;;;;;36.97;18.27;;;;;;;11.99;83.13;100850.50;124568;1099;104191;-71
2022/10/31 07:31:25;;;;;;;34.18;18.15;;;;;;;12.04;82.88;100846.33;124568;1099;104160;-71
2022/10/31 07:34:01;;;;;;;34.63;18.77;;;;;;;12.11;82.89;100839.53;124543;1099;104380;-72
2022/10/31 07:36:34;;;;;;;31.50;18.33;;;;;;;12.15;82.43;100841.41;124557;1099;104217;-72
2022/10/31 07:39:07;;;;;;;33.80;18.03;;;;;;;12.18;82.58;100841.52;124515;1099;104252;-71
2022/10/31 07:41:40;;;;;;;32.70;17.25;;;;;;;12.23;82.46;100832.06;124606;1099;103576;-72
2022/10/31 07:44:14;;;;;;;36.17;17.90;;;;;;;12.31;82.57;100828.78;124576;1099;104233;-72
2022/10/31 07:47:21;;;;;;;31.40;16.70;;;;;;;12.40;81.95;100836.98;124029;1102;106955;-72
2022/10/31 07:50:16;;;;;;;28.00;15.83;;;;;;;12.52;81.37;100842.66;124601;1099;104159;-72
2022/10/31 07:53:03;;;;;;;31.37;16.30;;;;;;;12.59;81.19;100842.03;124586;1099;102959;-72
2022/10/31 07:55:57;;;;;;;25.57;14.43;;;;;;;12.70;80.68;100844.10;124558;1099;104208;-72
2022/10/31 07:58:33;;;;;;;31.47;15.87;;;;;;;12.78;80.82;100832.11;124587;1099;103085;-72
2022/10/31 08:01:04;;;;;;;27.87;14.33;;;;;;;12.87;80.78;100835.03;124649;1099;104389;-72
2022/10/31 08:03:39;;;;;;;29.97;15.33;;;;;;;12.94;80.18;100830.84;124546;1099;104241;-71
2022/10/31 08:06:28;;;;;;;29.73;14.30;;;;;;;13.02;79.55;100833.72;124562;1099;102937;-71
2022/10/31 08:09:05;;;;;;;27.03;13.77;;;;;;;13.09;80.01;100840.97;124611;1098;104616;-72
2022/10/31 08:11:37;;;;;;;25.20;13.50;;;;;;;13.20;79.87;100836.92;124520;1099;103690;-71
2022/10/31 08:14:08;;;;;;;25.93;13.30;;;;;;;13.32;79.79;100839.01;124563;1098;104323;-71
2022/10/31 08:16:42;;;;;;;24.23;13.10;;;;;;;13.46;80.09;100837.73;124502;1099;104325;-72
2022/10/31 08:19:15;;;;;;;28.17;13.90;;;;;;;13.55;79.41;100833.56;124554;1099;104277;-71
2022/10/31 08:21:47;;;;;;;22.17;11.40;;;;;;;13.63;78.32;100845.22;124557;1099;104417;-72
2022/10/31 08:24:22;;;;;;;25.80;11.40;;;;;;;13.74;78.40;100837.61;124515;1099;104349;-71
2022/10/31 08:26:54;;;;;;;24.37;11.90;;;;;;;13.83;76.79;100838.76;124522;1099;104240;-73
2022/10/31 08:29:29;;;;;;;22.47;10.23;;;;;;;13.92;76.80;100847.80;124525;1099;104245;-72
2022/10/31 08:32:01;;;;;;;20.93;9.33;;;;;;;13.98;74.16;100837.41;124554;1098;104207;-72
2022/10/31 08:35:09;;;;;;;21.37;9.23;;;;;;;14.08;76.34;100839.43;124122;1102;104498;-72
2022/10/31 08:37:59;;;;;;;21.17;8.73;;;;;;;14.16;72.67;100868.66;124145;1099;103645;-72
2022/10/31 08:40:33;;;;;;;20.27;9.07;;;;;;;14.16;75.13;100842.27;124533;1099;104162;-71
2022/10/31 08:43:19;;;;;;;19.75;8.65;;;;;;;14.22;74.21;100842.44;124533;1099;104163;-72
2022/10/31 08:45:54;;;;;;;17.90;8.03;;;;;;;14.25;73.21;100849.55;124544;1099;104278;-72
2022/10/31 08:48:29;;;;;;;18.70;8.40;;;;;;;14.28;74.04;100847.88;124536;1098;102822;-72
2022/10/31 08:51:02;;;;;;;17.87;8.20;;;;;;;14.27;73.04;100832.88;124534;1100;103095;-72
2022/10/31 08:53:34;;;;;;;20.80;8.27;;;;;;;14.36;73.55;100829.59;124577;1098;103700;-72
2022/10/31 08:56:25;;;;;;;20.73;8.13;;;;;;;14.52;71.32;100862.55;124608;1098;102522;-72
2022/10/31 08:59:02;;;;;;;21.53;7.37;;;;;;;14.49;70.35;100860.75;124715;1098;110814;-73
2022/10/31 09:01:59;;;;;;;15.17;7.30;;;;;;;14.43;68.79;100857.95;125678;1098;102835;-72
2022/10/31 09:04:29;;;;;;;;;;;;;;;14.37;66.25;100857.80;124192;1099;104768;-72
2022/10/31 09:07:00;;;;;;;16.93;7.73;;;;;;;14.41;69.00;100858.76;124540;1099;104337;-72
2022/10/31 09:09:31;;;;;;;17.90;7.70;;;;;;;14.45;67.83;100863.27;124607;1099;104219;-71
2022/10/31 09:12:04;;;;;;;19.47;7.50;;;;;;;14.51;69.29;100866.95;125835;1098;102165;-71
2022/10/31 09:14:53;;;;;;;16.43;7.53;;;;;;;14.52;67.85;100874.03;124662;1099;104162;-72
2022/10/31 09:17:36;;;;;;;19.20;7.65;;;;;;;14.60;69.23;100868.98;124495;1099;104287;-72
2022/10/31 09:20:40;;;;;;;17.60;7.17;;;;;;;14.59;67.78;100867.16;124133;1099;103820;-72
2022/10/31 09:23:15;;;;;;;15.68;7.55;;;;;;;14.60;68.51;100878.59;124649;1099;104188;-71
2022/10/31 09:25:47;;;;;;;20.55;8.70;;;;;;;14.56;67.68;100882.92;124530;1098;104316;-71
2022/10/31 09:28:37;;;;;;;21.90;8.30;;;;;;;14.60;66.98;100870.67;124532;1099;103382;-72
2022/10/31 09:31:15;;;;;;;19.75;8.20;;;;;;;14.61;66.42;100878.67;124581;1099;104325;-73
2022/10/31 09:33:53;;;;;;;16.20;7.60;;;;;;;14.63;67.29;100878.70;124491;1098;104304;-73
2022/10/31 09:36:45;;;;;;;18.33;8.13;;;;;;;14.66;67.78;100890.27;124595;1099;104300;-71
2022/10/31 09:39:24;;;;;;;20.20;8.27;;;;;;;14.68;66.69;100890.30;124485;1099;104232;-71
2022/10/31 09:42:26;;;;;;;19.07;8.33;;;;;;;14.68;67.04;100888.55;124512;1098;104708;-72
2022/10/31 09:45:10;;;;;;;17.30;8.07;;;;;;;14.71;66.35;100891.27;124508;1099;102225;-73
2022/10/31 09:47:56;;;;;;;21.50;8.87;;;;;;;14.58;65.72;100893.52;124536;1099;104259;-72
2022/10/31 09:50:56;;;;;;;21.33;8.47;;;;;;;14.59;67.34;100890.92;124162;1099;104224;-72
2022/10/31 09:54:00;;;;;;;20.80;8.87;;;;;;;14.65;66.29;100891.11;124378;1099;104334;-72
2022/10/31 09:56:35;;;;;;;19.07;9.27;;;;;;;14.70;66.70;100893.87;124545;1098;104188;-72
2022/10/31 09:59:13;;;;;;;24.27;9.10;;;;;;;14.75;66.90;100900.15;124525;1098;104098;-73
2022/10/31 10:01:50;;;;;;;20.37;9.80;;;;;;;14.82;66.12;100894.17;124588;1099;104243;-72
2022/10/31 10:04:37;;;;;;;19.37;8.87;;;;;;;14.78;66.39;100897.58;124537;1099;104152;-73
2022/10/31 10:07:22;;;;;;;19.23;8.73;;;;;;;14.87;67.13;100891.64;124594;1099;102239;-73
2022/10/31 10:10:24;;;;;;;22.25;9.55;;;;;;;14.97;66.49;100904.20;124104;1099;104178;-73
2022/10/31 10:13:56;;;;;;;21.40;9.40;;;;;;;15.01;65.17;100900.79;124554;1099;104214;-72
2022/10/31 10:16:44;;;;;;;21.43;8.83;;;;;;;15.05;66.02;100904.39;124520;1099;103617;-72
2022/10/31 10:19:32;;;;;;;19.90;9.50;;;;;;;15.06;65.32;100900.90;124492;1099;104334;-73
2022/10/31 10:22:10;;;;;;;20.67;9.87;;;;;;;15.04;65.33;100897.34;124527;1099;103728;-72
2022/10/31 10:25:01;;;;;;;21.37;10.10;;;;;;;15.10;64.96;100893.08;124548;1099;104233;-72
2022/10/31 10:27:43;;;;;;;22.10;9.43;;;;;;;15.16;65.15;100897.63;124582;1099;104229;-73
2022/10/31 10:30:21;;;;;;;23.53;9.97;;;;;;;15.25;64.88;100911.06;124496;1099;104169;-72
2022/10/31 10:32:56;;;;;;;21.40;9.80;;;;;;;15.37;65.18;100897.21;124566;1099;104224;-72
2022/10/31 10:35:34;;;;;;;21.07;9.27;;;;;;;15.52;64.66;100899.31;124937;1099;102758;-73
2022/10/31 10:38:16;;;;;;;20.63;9.37;;;;;;;15.66;64.59;100891.68;126164;1098;101940;-73
2022/10/31 10:40:48;;;;;;;17.37;8.17;;;;;;;15.74;64.31;100886.55;124581;1099;104165;-73
2022/10/31 10:43:30;;;;;;;19.70;9.23;;;;;;;15.77;63.92;100890.17;124575;1099;104290;-72
2022/10/31 10:49:23;;;;;;;17.83;8.23;;;;;;;15.77;63.14;100882.23;124486;1098;104204;-73
2022/10/31 10:52:00;;;;;;;18.47;8.37;;;;;;;15.76;62.67;100884.81;124652;1099;101891;-73
2022/10/31 10:54:48;;;;;;;18.20;8.20;;;;;;;15.70;61.59;100880.28;124588;1099;104194;-74
2022/10/31 10:57:32;;;;;;;15.63;6.97;;;;;;;15.71;62.23;100876.78;124614;1099;102585;-74
2022/10/31 11:00:34;;;;;;;16.57;7.23;;;;;;;15.77;61.92;100876.95;124647;1098;104310;-73
2022/10/31 11:03:06;;;;;;;18.13;7.70;;;;;;;15.80;62.18;100882.30;124632;1099;104167;-73
2022/10/31 11:05:40;;;;;;;17.60;7.27;;;;;;;15.73;61.36;100882.11;124225;1099;104169;-73
2022/10/31 11:08:12;;;;;;;16.03;7.67;;;;;;;15.65;61.15;100884.59;124632;1098;104208;-72
2022/10/31 11:10:49;;;;;;;16.13;7.17;;;;;;;15.56;61.29;100885.27;124750;1099;103370;-73
2022/10/31 11:13:28;;;;;;;17.30;7.80;;;;;;;15.45;61.68;100890.33;124699;1099;102309;-73
2022/10/31 11:16:08;;;;;;;16.03;7.30;;;;;;;15.36;60.89;100882.19;124720;1099;102885;-73
2022/10/31 11:18:46;;;;;;;16.77;7.20;;;;;;;15.31;61.00;100883.84;124780;1098;104351;-73
2022/10/31 11:21:28;;;;;;;18.57;7.60;;;;;;;15.26;61.70;100881.10;124815;1099;104166;-73
2022/10/31 11:24:20;;;;;;;16.03;7.70;;;;;;;15.25;61.78;100879.34;124643;1099;102417;-75
2022/10/31 11:27:04;;;;;;;18.63;7.47;;;;;;;15.29;60.88;100880.29;124748;1099;104193;-74
2022/10/31 11:29:37;;;;;;;17.23;7.40;;;;;;;15.34;60.67;100878.63;124287;1099;104232;-74
2022/10/31 11:32:20;;;;;;;14.87;6.63;;;;;;;15.39;59.49;100876.97;124803;1099;102343;-74
2022/10/31 11:34:55;;;;;;;18.30;7.20;;;;;;;15.39;60.13;100884.91;124757;1099;102311;-74
2022/10/31 11:37:30;;;;;;;14.10;5.80;;;;;;;15.39;58.36;100870.80;124218;1099;104398;-73
2022/10/31 11:40:05;;;;;;;13.62;5.75;;;;;;;15.39;57.77;100868.16;124581;1099;103647;-73
2022/10/31 11:42:51;;;;;;;17.10;6.93;;;;;;;15.40;59.56;100865.55;124605;1099;104418;-73
2022/10/31 11:45:36;;;;;;;15.23;6.27;;;;;;;15.41;59.04;100869.98;124670;1099;104235;-73
2022/10/31 11:48:19;;;;;;;14.60;6.07;;;;;;;15.41;57.59;100866.43;124686;1099;103678;-73